Time;durP1;ratioP1;P1;durP2;ratioP2;P2;SDS_P1;SDS_P2;PMS_P1;PMS_P2;Temp;Humidity;BMP_temperature;BMP_pressure;BME280_temperature;BME280_humidity;BME280_pressure;Samples;Min_cycle;Max_cycle;Signal;HPM_P1;HPM_P2
2023/05/11 00:01:18;;;;;;;19.40;13.23;;;14.30;99.90;;;;;;4956523;28;20678;-81
2023/05/11 00:03:44;;;;;;;19.30;12.03;;;14.40;99.90;;;;;;4956595;29;20168;-81
2023/05/11 00:06:09;;;;;;;18.63;11.50;;;14.40;99.90;;;;;;4954819;28;20177;-80
2023/05/11 00:08:35;;;;;;;15.10;11.47;;;14.30;99.90;;;;;;4954500;29;20177;-81
2023/05/11 00:11:01;;;;;;;17.10;11.47;;;14.20;99.90;;;;;;4956361;29;20268;-81
2023/05/11 00:13:27;;;;;;;16.77;10.13;;;14.20;99.90;;;;;;4956456;28;20673;-80
2023/05/11 00:15:53;;;;;;;16.20;11.53;;;14.40;99.90;;;;;;4954614;29;20191;-83
2023/05/11 00:18:19;;;;;;;18.90;11.47;;;14.40;99.90;;;;;;4955716;28;20176;-80
2023/05/11 00:20:45;;;;;;;16.30;11.60;;;14.30;99.90;;;;;;4955936;28;20304;-80
2023/05/11 00:23:11;;;;;;;14.23;10.43;;;14.50;99.90;;;;;;4955564;28;20696;-81
2023/05/11 00:25:38;;;;;;;14.63;10.87;;;14.40;99.90;;;;;;4955366;29;20180;-81
2023/05/11 00:28:03;;;;;;;15.07;9.53;;;14.40;99.90;;;;;;4955084;29;20560;-80
2023/05/11 00:30:29;;;;;;;13.97;10.13;;;14.30;99.90;;;;;;4956535;29;20176;-84
2023/05/11 00:32:55;;;;;;;12.20;9.43;;;14.40;99.90;;;;;;4957229;28;20578;-79
2023/05/11 00:35:21;;;;;;;14.67;8.93;;;14.30;99.90;;;;;;4955268;29;20209;-80
2023/05/11 00:37:47;;;;;;;13.93;8.80;;;14.30;99.90;;;;;;4955751;29;20545;-86
2023/05/11 00:40:13;;;;;;;13.87;8.80;;;14.30;99.90;;;;;;4958850;28;20212;-81
2023/05/11 00:42:38;;;;;;;13.47;8.93;;;14.30;99.90;;;;;;4956848;28;20172;-81
2023/05/11 00:45:05;;;;;;;15.30;8.80;;;14.30;99.90;;;;;;4956304;28;20260;-80
2023/05/11 00:47:30;;;;;;;13.77;9.23;;;14.40;99.90;;;;;;4955151;29;20211;-80
2023/05/11 00:49:56;;;;;;;14.83;8.83;;;14.50;99.30;;;;;;4955379;28;20204;-80
2023/05/11 00:52:22;;;;;;;12.40;9.13;;;14.40;99.40;;;;;;4954822;29;20185;-81
2023/05/11 00:54:48;;;;;;;12.47;9.03;;;14.50;98.20;;;;;;4955589;28;20178;-82
2023/05/11 00:57:14;;;;;;;12.03;8.57;;;14.50;98.80;;;;;;4953601;28;20698;-80
2023/05/11 00:59:40;;;;;;;13.33;8.30;;;14.40;99.80;;;;;;4953974;28;20292;-80
2023/05/11 01:02:06;;;;;;;11.47;8.40;;;14.40;99.90;;;;;;4954562;28;20221;-79
2023/05/11 01:04:32;;;;;;;13.33;8.33;;;14.40;99.90;;;;;;4955659;28;20532;-81
2023/05/11 01:07:24;;;;;;;12.27;8.07;;;14.40;99.90;;;;;;4953565;28;20266;-81
2023/05/11 01:10:07;;;;;;;14.40;8.03;;;14.50;99.20;;;;;;4959214;28;20188;-79
2023/05/11 01:12:42;;;;;;;15.00;7.50;;;14.40;97.30;;;;;;4970554;28;20184;-79
2023/05/11 01:15:24;;;;;;;12.60;6.97;;;14.20;99.40;;;;;;4975014;28;20190;-80
2023/05/11 01:18:23;;;;;;;13.93;7.13;;;14.00;99.90;;;;;;4955127;28;20633;-82
2023/05/11 01:20:52;;;;;;;17.67;7.70;;;13.90;99.90;;;;;;4978239;28;20287;-83
2023/05/11 01:23:42;;;;;;;15.50;7.37;;;13.90;99.90;;;;;;4970328;28;20192;-80
2023/05/11 01:26:38;;;;;;;16.33;7.77;;;13.80;99.90;;;;;;4958261;28;20200;-82
2023/05/11 01:29:42;;;;;;;17.67;7.37;;;13.70;99.90;;;;;;4954561;28;20247;-82
2023/05/11 01:32:21;;;;;;;13.97;6.90;;;13.70;99.90;;;;;;4931147;29;20198;-80
2023/05/11 01:34:50;;;;;;;16.13;8.03;;;13.70;99.90;;;;;;4953228;29;20182;-81
2023/05/11 01:37:22;;;;;;;18.10;7.80;;;13.90;99.90;;;;;;4955224;28;20262;-80
2023/05/11 01:39:56;;;;;;;16.60;8.07;;;13.80;99.90;;;;;;4963073;28;20204;-80
2023/05/11 01:42:37;;;;;;;14.27;7.17;;;13.70;99.90;;;;;;4978279;28;20183;-82
2023/05/11 01:45:05;;;;;;;15.40;7.17;;;13.70;99.90;;;;;;4957635;28;20172;-81
2023/05/11 01:47:31;;;;;;;12.83;6.33;;;13.70;99.90;;;;;;4955556;28;20208;-80
2023/05/11 01:50:41;;;;;;;14.67;7.67;;;13.60;99.90;;;;;;4954230;28;20688;-81
2023/05/11 01:53:09;;;;;;;14.67;7.10;;;13.60;99.90;;;;;;4954302;28;20183;-81
2023/05/11 01:55:36;;;;;;;13.60;6.80;;;13.60;99.90;;;;;;4955720;28;20634;-81
2023/05/11 01:58:05;;;;;;;16.87;6.47;;;13.60;99.90;;;;;;4954534;29;20211;-81
2023/05/11 02:00:32;;;;;;;17.53;6.50;;;13.70;99.90;;;;;;4954279;28;20216;-81
2023/05/11 02:03:02;;;;;;;15.70;6.50;;;13.70;99.90;;;;;;4954597;28;20175;-80
2023/05/11 02:05:29;;;;;;;12.43;6.00;;;13.60;99.90;;;;;;4954670;28;20201;-80
2023/05/11 02:07:59;;;;;;;12.40;5.93;;;13.60;99.90;;;;;;4953810;28;20183;-80
2023/05/11 02:10:25;;;;;;;14.63;6.23;;;13.70;99.90;;;;;;4954503;28;20180;-81
2023/05/11 02:12:53;;;;;;;13.73;5.47;;;13.60;99.90;;;;;;4958033;28;20180;-81
2023/05/11 02:15:21;;;;;;;13.60;6.60;;;13.60;99.90;;;;;;4959943;28;20183;-80
2023/05/11 02:17:46;;;;;;;14.20;5.60;;;13.70;99.90;;;;;;4958458;28;20279;-85
2023/05/11 02:20:13;;;;;;;16.17;5.93;;;13.90;99.90;;;;;;4959057;28;20279;-81
2023/05/11 02:22:41;;;;;;;15.07;6.57;;;13.80;99.90;;;;;;4959579;28;20671;-81
2023/05/11 02:25:08;;;;;;;16.10;6.57;;;13.80;99.90;;;;;;4958283;28;20177;-82
2023/05/11 02:27:34;;;;;;;15.00;5.83;;;13.60;99.90;;;;;;4958574;28;20191;-80
2023/05/11 02:30:02;;;;;;;11.97;6.10;;;13.50;99.90;;;;;;4957963;28;20193;-81
2023/05/11 02:32:31;;;;;;;14.07;5.97;;;13.50;99.90;;;;;;4958570;28;20204;-80
2023/05/11 02:35:07;;;;;;;14.67;6.00;;;13.40;99.90;;;;;;4958513;28;20179;-81
2023/05/11 02:37:38;;;;;;;16.40;6.10;;;13.40;99.90;;;;;;4957548;28;20180;-81
2023/05/11 02:40:12;;;;;;;19.33;6.40;;;13.20;99.90;;;;;;4957613;28;20243;-80
2023/05/11 02:42:40;;;;;;;15.73;5.80;;;13.10;99.90;;;;;;4958769;28;20178;-80
2023/05/11 02:45:13;;;;;;;17.40;6.57;;;13.10;99.90;;;;;;4957348;28;20640;-80
2023/05/11 02:48:07;;;;;;;15.20;6.07;;;13.10;99.90;;;;;;4957871;28;20637;-80
2023/05/11 02:50:36;;;;;;;12.97;6.30;;;13.00;99.90;;;;;;4955843;29;20270;-80
2023/05/11 02:53:06;;;;;;;12.83;6.00;;;13.00;99.90;;;;;;4957108;28;20172;-80
2023/05/11 02:55:32;;;;;;;20.70;6.70;;;13.00;99.90;;;;;;4957521;28;20240;-80
2023/05/11 02:57:58;;;;;;;16.53;6.17;;;13.00;99.90;;;;;;4956443;28;20262;-80
2023/05/11 03:00:23;;;;;;;14.33;6.43;;;12.90;99.90;;;;;;4957186;28;20226;-80
2023/05/11 03:02:49;;;;;;;18.60;6.53;;;13.10;99.90;;;;;;4956225;28;20204;-80
2023/05/11 03:05:15;;;;;;;16.83;6.90;;;13.10;99.90;;;;;;4958046;28;20185;-80
2023/05/11 03:07:41;;;;;;;18.27;7.03;;;13.10;99.90;;;;;;4956098;28;20246;-80
2023/05/11 03:10:08;;;;;;;15.97;7.00;;;13.10;99.90;;;;;;4956591;28;20329;-81
2023/05/11 03:12:34;;;;;;;23.10;7.60;;;13.10;99.90;;;;;;4956856;28;20187;-80
2023/05/11 03:15:00;;;;;;;19.73;6.67;;;13.10;99.90;;;;;;4960202;28;20183;-81
2023/05/11 03:17:28;;;;;;;18.03;7.03;;;13.00;99.90;;;;;;4970571;28;20180;-80
2023/05/11 03:19:55;;;;;;;16.77;7.53;;;13.00;99.90;;;;;;4969431;28;20270;-80
2023/05/11 03:22:22;;;;;;;18.23;8.23;;;13.10;99.90;;;;;;4956604;28;20173;-81
2023/05/11 03:24:49;;;;;;;22.80;9.17;;;13.10;99.90;;;;;;4957746;28;20551;-80
2023/05/11 03:27:16;;;;;;;17.87;8.27;;;13.00;99.90;;;;;;4958758;28;20220;-84
2023/05/11 03:29:44;;;;;;;21.43;8.23;;;13.00;99.90;;;;;;4963250;28;20518;-84
2023/05/11 03:32:11;;;;;;;20.47;10.00;;;13.00;99.90;;;;;;4964254;29;20188;-80
2023/05/11 03:34:37;;;;;;;23.17;9.50;;;13.00;99.90;;;;;;4957655;28;20637;-80
2023/05/11 03:37:05;;;;;;;23.70;11.17;;;12.90;99.90;;;;;;4957409;28;20183;-83
2023/05/11 03:39:34;;;;;;;24.87;11.47;;;12.80;99.90;;;;;;4960865;29;20176;-84
2023/05/11 03:42:00;;;;;;;22.53;11.73;;;12.60;99.90;;;;;;4961325;29;20655;-81
2023/05/11 03:44:30;;;;;;;24.40;11.27;;;12.50;99.90;;;;;;4958786;29;20256;-81
2023/05/11 03:46:57;;;;;;;26.83;12.47;;;12.70;99.90;;;;;;4960921;28;20652;-82
2023/05/11 03:49:24;;;;;;;24.80;12.77;;;12.80;99.90;;;;;;4959463;29;20229;-82
2023/05/11 03:51:50;;;;;;;26.70;11.97;;;12.70;99.90;;;;;;4959449;28;20195;-80
2023/05/11 03:54:15;;;;;;;25.40;12.17;;;12.80;99.90;;;;;;4957224;29;20648;-81
2023/05/11 03:56:42;;;;;;;26.80;13.53;;;12.60;99.90;;;;;;4957299;28;20178;-81
2023/05/11 03:59:13;;;;;;;25.60;13.50;;;12.60;99.90;;;;;;4957900;28;20172;-81
2023/05/11 04:01:38;;;;;;;27.37;14.53;;;12.70;99.90;;;;;;4956035;28;20256;-86
2023/05/11 04:04:05;;;;;;;26.47;12.50;;;12.60;99.90;;;;;;4956596;29;20180;-81
2023/05/11 04:06:31;;;;;;;23.60;14.20;;;12.60;99.90;;;;;;4956970;29;20277;-83
2023/05/11 04:08:57;;;;;;;24.20;13.17;;;12.60;99.90;;;;;;4955352;29;20210;-80
2023/05/11 04:11:22;;;;;;;27.57;14.67;;;12.60;99.90;;;;;;4956901;28;20179;-79
2023/05/11 04:13:49;;;;;;;32.43;15.20;;;12.70;99.90;;;;;;4962962;28;20199;-80
2023/05/11 04:16:15;;;;;;;26.27;15.00;;;12.70;99.90;;;;;;4977733;29;20203;-82
2023/05/11 04:18:40;;;;;;;26.93;14.17;;;12.80;99.90;;;;;;4959544;29;20662;-82
2023/05/11 04:21:06;;;;;;;29.63;15.93;;;12.70;99.90;;;;;;4955589;29;20236;-81
2023/05/11 04:23:33;;;;;;;28.80;15.37;;;12.60;99.90;;;;;;4957479;29;20182;-84
2023/05/11 04:25:58;;;;;;;28.27;15.33;;;12.70;99.90;;;;;;4957632;29;20175;-87
2023/05/11 04:28:26;;;;;;;30.93;15.70;;;12.70;99.90;;;;;;4956894;28;20223;-81
2023/05/11 04:30:56;;;;;;;24.57;16.43;;;12.80;99.90;;;;;;4955058;29;20275;-80
2023/05/11 04:33:24;;;;;;;29.20;16.77;;;12.80;99.90;;;;;;4957259;28;20254;-85
2023/05/11 04:35:52;;;;;;;25.93;15.37;;;12.80;99.90;;;;;;4978008;28;20155;-81
2023/05/11 04:38:18;;;;;;;24.63;14.77;;;12.70;99.90;;;;;;4974819;28;20262;-81
2023/05/11 04:40:44;;;;;;;21.97;14.30;;;12.60;99.90;;;;;;4958621;29;20666;-83
2023/05/11 04:43:16;;;;;;;24.50;13.53;;;12.80;99.90;;;;;;4957907;28;20174;-81
2023/05/11 04:45:49;;;;;;;21.57;13.60;;;12.60;99.90;;;;;;4956670;28;20176;-79
2023/05/11 04:48:15;;;;;;;23.10;13.50;;;12.60;99.90;;;;;;4953591;29;20261;-81
2023/05/11 04:50:41;;;;;;;19.80;12.97;;;12.60;99.90;;;;;;4969540;28;20197;-79
2023/05/11 04:53:09;;;;;;;20.60;12.93;;;12.60;99.90;;;;;;4956049;28;20568;-80
2023/05/11 04:55:34;;;;;;;25.30;12.13;;;12.70;99.90;;;;;;4956059;28;20172;-81
2023/05/11 04:58:00;;;;;;;26.30;13.00;;;12.80;99.90;;;;;;4968891;28;20200;-80
2023/05/11 05:00:26;;;;;;;15.00;11.33;;;12.80;99.90;;;;;;4966157;28;20217;-82
2023/05/11 05:02:52;;;;;;;22.03;12.23;;;12.90;99.90;;;;;;4958299;28;20184;-82
2023/05/11 05:05:19;;;;;;;24.53;12.40;;;12.80;99.90;;;;;;4956188;28;20185;-87
2023/05/11 05:07:47;;;;;;;18.77;11.60;;;12.90;99.90;;;;;;4957778;28;20171;-83
2023/05/11 05:10:12;;;;;;;19.20;10.97;;;12.90;99.90;;;;;;4972045;28;20194;-83
2023/05/11 05:12:38;;;;;;;17.50;10.87;;;12.80;99.90;;;;;;4954592;28;20564;-85
2023/05/11 05:15:05;;;;;;;18.47;10.57;;;12.90;99.90;;;;;;4955942;29;20176;-81
2023/05/11 05:17:31;;;;;;;19.23;9.50;;;12.70;99.90;;;;;;4956025;28;20635;-82
2023/05/11 05:19:59;;;;;;;20.50;10.37;;;12.80;99.90;;;;;;4954287;29;20232;-81
2023/05/11 05:22:25;;;;;;;18.73;9.53;;;12.80;99.90;;;;;;4962823;29;20189;-81
2023/05/11 05:24:51;;;;;;;19.33;9.77;;;12.80;99.90;;;;;;4975565;28;20173;-80
2023/05/11 05:27:17;;;;;;;20.93;9.37;;;13.00;99.90;;;;;;4969382;28;20177;-81
2023/05/11 05:29:43;;;;;;;17.20;8.73;;;13.00;99.90;;;;;;4954694;28;20178;-80
2023/05/11 05:32:08;;;;;;;18.37;9.13;;;13.00;99.90;;;;;;4970329;28;20196;-83
2023/05/11 05:34:34;;;;;;;17.57;8.97;;;13.00;99.90;;;;;;4955536;29;20169;-80
2023/05/11 05:37:00;;;;;;;16.07;8.63;;;12.90;99.90;;;;;;4954450;28;20179;-81
2023/05/11 05:39:25;;;;;;;14.00;7.87;;;13.10;99.90;;;;;;4955235;28;20277;-80
2023/05/11 05:41:51;;;;;;;17.53;7.87;;;13.00;99.90;;;;;;4954427;28;20207;-80
2023/05/11 05:44:17;;;;;;;14.47;7.47;;;13.00;99.90;;;;;;4955601;28;20171;-80
2023/05/11 05:46:43;;;;;;;18.07;8.20;;;13.10;99.90;;;;;;4954549;28;20188;-81
2023/05/11 05:49:09;;;;;;;13.53;7.40;;;13.30;99.90;;;;;;4955713;29;20174;-79
2023/05/11 05:51:35;;;;;;;17.33;8.10;;;13.30;99.90;;;;;;4955744;28;20194;-81
2023/05/11 05:54:01;;;;;;;14.53;7.80;;;13.10;99.90;;;;;;4955622;28;20183;-80
2023/05/11 05:56:27;;;;;;;14.67;7.80;;;13.10;99.90;;;;;;4954638;28;20698;-80
2023/05/11 05:58:52;;;;;;;12.07;7.43;;;13.10;99.90;;;;;;4954706;29;20265;-80
2023/05/11 06:01:18;;;;;;;14.13;7.77;;;13.00;99.90;;;;;;4955920;28;20693;-80
2023/05/11 06:03:44;;;;;;;17.37;7.10;;;13.10;99.90;;;;;;4958464;28;20192;-81
2023/05/11 06:06:10;;;;;;;13.73;7.63;;;13.10;99.90;;;;;;4958003;28;20178;-84
2023/05/11 06:08:36;;;;;;;16.23;7.30;;;13.20;99.90;;;;;;4955616;28;20170;-81
2023/05/11 06:11:02;;;;;;;15.40;7.87;;;13.30;99.90;;;;;;4954712;28;20218;-83
2023/05/11 06:13:28;;;;;;;15.17;7.03;;;13.30;99.90;;;;;;4953622;28;20203;-84
2023/05/11 06:15:54;;;;;;;13.47;6.83;;;13.20;99.90;;;;;;4954868;28;20168;-81
2023/05/11 06:18:20;;;;;;;16.03;7.37;;;13.30;99.90;;;;;;4955523;28;20169;-81
2023/05/11 06:20:45;;;;;;;13.70;6.80;;;13.30;99.90;;;;;;4953003;29;20227;-81
2023/05/11 06:23:11;;;;;;;14.13;6.73;;;13.40;99.90;;;;;;4954373;29;20184;-82
2023/05/11 06:25:37;;;;;;;15.47;7.20;;;13.60;99.90;;;;;;4953976;29;20355;-83
2023/05/11 06:28:03;;;;;;;17.40;7.37;;;13.70;99.90;;;;;;4955574;28;20663;-85
2023/05/11 06:30:30;;;;;;;12.13;7.10;;;13.80;99.90;;;;;;4952967;28;20193;-82
2023/05/11 06:32:56;;;;;;;14.10;6.90;;;14.00;97.40;;;;;;4955425;28;20698;-78
2023/05/11 06:35:22;;;;;;;13.33;6.20;;;14.10;96.20;;;;;;4956920;28;20169;-81
2023/05/11 06:37:48;;;;;;;15.37;7.77;;;14.30;93.90;;;;;;4958110;28;20198;-84
2023/05/11 06:40:15;;;;;;;17.70;7.53;;;14.50;91.40;;;;;;4960401;28;20207;-82
2023/05/11 06:42:41;;;;;;;12.33;7.50;;;14.60;83.00;;;;;;4961488;29;20176;-79
2023/05/11 06:45:09;;;;;;;12.20;6.87;;;14.70;71.80;;;;;;4963313;28;20157;-80
2023/05/11 06:47:35;;;;;;;13.77;7.70;;;14.80;63.10;;;;;;4960358;28;20252;-79
2023/05/11 06:50:01;;;;;;;13.47;7.70;;;14.60;55.70;;;;;;4955984;28;20242;-80
2023/05/11 06:52:28;;;;;;;15.83;7.97;;;14.50;59.40;;;;;;4956297;29;20280;-79
2023/05/11 06:54:53;;;;;;;12.17;7.30;;;14.30;60.70;;;;;;4960957;28;20172;-80
2023/05/11 06:57:19;;;;;;;15.67;7.33;;;14.30;69.60;;;;;;4960898;28;20662;-80
2023/05/11 06:59:45;;;;;;;13.27;6.43;;;14.40;71.10;;;;;;4959468;28;20659;-80
2023/05/11 07:02:10;;;;;;;16.07;7.00;;;14.60;62.30;;;;;;4972813;28;20691;-84
2023/05/11 07:04:39;;;;;;;11.37;6.53;;;14.70;58.50;;;;;;4978628;28;20187;-80
2023/05/11 07:07:10;;;;;;;14.53;6.33;;;14.80;60.80;;;;;;4978749;28;20180;-79
2023/05/11 07:09:36;;;;;;;12.83;6.33;;;14.90;46.60;;;;;;4975960;28;20169;-79
2023/05/11 07:12:09;;;;;;;13.53;6.00;;;14.90;38.30;;;;;;4972709;29;20193;-79
2023/05/11 07:14:37;;;;;;;9.07;5.30;;;14.90;42.50;;;;;;4975852;28;20167;-80
2023/05/11 07:17:07;;;;;;;17.63;6.50;;;15.00;36.20;;;;;;4976576;28;20208;-80
2023/05/11 07:19:34;;;;;;;12.23;5.63;;;15.10;25.70;;;;;;4978305;28;20160;-86
2023/05/11 07:22:00;;;;;;;10.87;5.50;;;14.90;27.60;;;;;;4976342;28;20197;-79
2023/05/11 07:24:26;;;;;;;11.23;5.50;;;14.80;23.60;;;;;;4976451;29;20184;-80
2023/05/11 07:26:58;;;;;;;14.60;6.03;;;14.80;26.10;;;;;;4972572;28;20172;-81
2023/05/11 07:29:25;;;;;;;15.57;6.13;;;14.90;32.90;;;;;;4979344;28;20185;-78
2023/05/11 07:32:20;;;;;;;11.97;5.07;;;15.00;32.20;;;;;;4978363;29;20248;-81
2023/05/11 07:35:05;;;;;;;13.87;5.97;;;15.10;31.20;;;;;;4972269;28;20180;-80
2023/05/11 07:37:33;;;;;;;11.10;5.60;;;15.20;33.20;;;;;;4965969;28;20231;-84
2023/05/11 07:40:06;;;;;;;12.37;5.30;;;15.30;30.90;;;;;;4962165;28;20189;-86
2023/05/11 07:42:32;;;;;;;12.50;5.20;;;15.60;19.00;;;;;;4960505;29;20548;-80
2023/05/11 07:44:57;;;;;;;12.37;5.77;;;15.80;13.30;;;;;;4958672;28;20165;-81
2023/05/11 07:47:29;;;;;;;14.83;5.40;;;15.90;8.60;;;;;;4957725;28;20180;-80
2023/05/11 07:49:56;;;;;;;9.13;4.90;;;16.00;2.30;;;;;;4957997;28;20717;-79
2023/05/11 07:52:30;;;;;;;9.90;4.53;;;16.10;1.00;;;;;;4957737;28;20637;-81
2023/05/11 07:54:56;;;;;;;11.63;5.33;;;16.00;1.00;;;;;;4957876;28;20168;-83
2023/05/11 07:57:22;;;;;;;9.57;5.20;;;15.70;1.00;;;;;;4957351;28;20242;-80
2023/05/11 07:59:47;;;;;;;9.93;4.90;;;15.70;1.00;;;;;;4963265;28;20239;-80
2023/05/11 08:02:22;;;;;;;7.93;5.30;;;15.50;1.00;;;;;;4966507;28;20494;-80
2023/05/11 08:04:48;;;;;;;9.43;5.30;;;15.60;1.00;;;;;;4963125;28;20176;-80
2023/05/11 08:07:19;;;;;;;7.97;5.20;;;15.60;1.00;;;;;;4961868;28;20195;-82
2023/05/11 08:09:48;;;;;;;8.87;5.33;;;15.60;1.00;;;;;;4959755;28;20578;-82
2023/05/11 08:12:14;;;;;;;11.10;5.70;;;15.70;1.00;;;;;;4957358;28;20216;-80
2023/05/11 08:14:41;;;;;;;7.57;4.13;;;15.90;1.00;;;;;;4958759;28;20258;-83
2023/05/11 08:17:07;;;;;;;9.90;4.90;;;16.00;1.00;;;;;;4960704;28;20180;-82
2023/05/11 08:19:33;;;;;;;10.50;5.07;;;16.00;1.00;;;;;;4958919;28;20526;-80
2023/05/11 08:22:00;;;;;;;10.23;4.80;;;16.20;1.00;;;;;;4956650;28;20523;-80
2023/05/11 08:24:27;;;;;;;9.77;4.50;;;16.30;1.00;;;;;;4955265;28;20180;-80
2023/05/11 08:26:53;;;;;;;8.70;4.37;;;16.40;1.00;;;;;;4955711;29;20184;-80
2023/05/11 08:29:20;;;;;;;9.03;4.40;;;16.50;1.00;;;;;;4956016;28;20262;-80
2023/05/11 08:31:45;;;;;;;11.23;4.87;;;16.50;1.00;;;;;;4956049;28;20184;-80
2023/05/11 08:34:12;;;;;;;8.63;4.93;;;16.50;1.00;;;;;;4956157;28;20686;-80
2023/05/11 08:36:38;;;;;;;12.13;5.27;;;16.60;1.00;;;;;;4956220;28;20180;-81
2023/05/11 08:39:04;;;;;;;7.90;4.90;;;16.40;1.00;;;;;;4954815;29;20188;-80
2023/05/11 08:41:30;;;;;;;10.80;5.03;;;16.30;1.00;;;;;;4955681;28;20721;-80
2023/05/11 08:43:59;;;;;;;8.33;5.03;;;16.30;1.00;;;;;;4956150;28;20250;-80
2023/05/11 08:46:28;;;;;;;8.83;5.33;;;16.40;1.00;;;;;;4955496;29;20173;-80
2023/05/11 08:49:00;;;;;;;10.67;4.20;;;16.30;1.00;;;;;;4956522;29;20268;-83
2023/05/11 08:51:27;;;;;;;11.60;4.97;;;16.20;1.00;;;;;;4959018;28;20193;-81
2023/05/11 08:53:56;;;;;;;8.40;4.70;;;16.10;1.00;;;;;;4955489;29;20182;-83
2023/05/11 08:56:24;;;;;;;9.90;4.80;;;16.30;1.00;;;;;;4956156;29;20195;-82
2023/05/11 08:58:54;;;;;;;9.33;4.37;;;16.50;1.00;;;;;;4956842;28;20692;-82
2023/05/11 09:01:28;;;;;;;12.90;4.37;;;16.60;1.00;;;;;;4956411;28;20639;-81
2023/05/11 09:03:55;;;;;;;8.27;3.97;;;16.50;1.00;;;;;;4954629;29;20315;-85
2023/05/11 09:06:23;;;;;;;8.03;4.20;;;16.40;1.00;;;;;;4955035;29;20546;-81
2023/05/11 09:08:54;;;;;;;10.53;5.00;;;16.40;1.00;;;;;;4955355;29;20749;-81
2023/05/11 09:11:21;;;;;;;9.93;5.00;;;16.40;1.00;;;;;;4955165;29;20207;-81
2023/05/11 09:13:47;;;;;;;10.83;4.97;;;16.40;1.00;;;;;;4956175;28;20169;-80
2023/05/11 09:16:13;;;;;;;8.23;4.50;;;16.20;1.00;;;;;;4955189;29;20279;-83
2023/05/11 09:18:49;;;;;;;9.90;5.43;;;16.10;1.00;;;;;;4956703;28;20204;-80
2023/05/11 09:21:16;;;;;;;7.40;4.60;;;16.20;1.00;;;;;;4955882;28;20296;-83
2023/05/11 09:23:42;;;;;;;8.00;4.17;;;16.30;1.00;;;;;;4956286;28;20164;-82
2023/05/11 09:26:15;;;;;;;8.23;3.90;;;16.40;1.00;;;;;;4956782;28;20179;-87
2023/05/11 09:28:52;;;;;;;10.87;4.50;;;16.50;1.00;;;;;;4957169;28;20267;-83
2023/05/11 09:31:43;;;;;;;7.77;4.90;;;16.60;1.00;;;;;;4957198;28;20177;-81
2023/05/11 09:34:20;;;;;;;7.67;5.20;;;16.50;1.00;;;;;;4957932;28;20174;-83
2023/05/11 09:36:55;;;;;;;8.67;4.63;;;16.20;1.00;;;;;;4939796;29;20172;-81
2023/05/11 09:39:35;;;;;;;12.73;5.30;;;16.10;1.00;;;;;;4941559;29;20628;-82
2023/05/11 09:42:44;;;;;;;10.33;4.17;;;16.10;1.00;;;;;;4938762;29;20219;-81
2023/05/11 09:45:11;;;;;;;7.00;4.87;;;16.30;1.00;;;;;;4937179;29;20260;-82
2023/05/11 09:47:41;;;;;;;11.23;5.40;;;16.40;1.00;;;;;;4936136;29;20176;-82
2023/05/11 09:50:16;;;;;;;8.10;4.90;;;16.40;1.00;;;;;;4936086;29;20802;-82
2023/05/11 09:52:52;;;;;;;8.43;4.90;;;16.00;1.00;;;;;;4936708;29;20195;-82
2023/05/11 09:55:17;;;;;;;8.53;4.33;;;15.90;1.00;;;;;;4935406;29;20177;-82
2023/05/11 09:57:53;;;;;;;9.07;4.37;;;15.90;1.00;;;;;;4936518;29;20180;-83
2023/05/11 10:00:19;;;;;;;8.73;4.30;;;16.10;1.00;;;;;;4936169;29;20722;-81
2023/05/11 10:02:44;;;;;;;7.73;3.60;;;16.50;1.00;;;;;;4937679;29;20175;-82
2023/05/11 10:05:12;;;;;;;10.33;4.43;;;16.80;1.00;;;;;;4946862;29;20257;-82
2023/05/11 10:07:38;;;;;;;8.23;4.33;;;17.00;1.00;;;;;;4952216;29;20174;-82
2023/05/11 10:10:06;;;;;;;7.37;3.70;;;17.40;1.00;;;;;;4939333;29;20184;-80
2023/05/11 10:12:39;;;;;;;10.10;4.33;;;17.70;1.00;;;;;;4942755;29;20165;-81
2023/05/11 10:15:20;;;;;;;12.13;4.90;;;17.90;1.00;;;;;;4945161;29;20248;-85
2023/05/11 10:17:47;;;;;;;8.00;4.27;;;18.10;1.00;;;;;;4944231;29;20482;-80
2023/05/11 10:20:13;;;;;;;6.27;4.37;;;18.10;1.00;;;;;;4940971;29;20207;-82
2023/05/11 10:22:40;;;;;;;9.07;4.20;;;18.00;1.00;;;;;;4937798;29;20205;-81
2023/05/11 10:25:14;;;;;;;8.60;3.97;;;18.20;1.00;;;;;;4958197;28;20189;-80
2023/05/11 10:27:43;;;;;;;9.63;3.87;;;18.30;1.00;;;;;;4949922;29;20199;-86
2023/05/11 10:30:10;;;;;;;7.60;4.00;;;18.50;1.00;;;;;;4945409;29;20218;-82
2023/05/11 10:32:36;;;;;;;9.70;4.03;;;18.80;1.00;;;;;;4941412;29;20178;-80
2023/05/11 10:35:05;;;;;;;6.47;4.17;;;18.70;1.00;;;;;;4942211;29;20654;-81
2023/05/11 10:37:32;;;;;;;9.00;4.10;;;18.80;1.00;;;;;;4942986;29;20164;-83
2023/05/11 10:39:58;;;;;;;9.60;3.77;;;18.80;1.00;;;;;;4940925;29;20219;-81
2023/05/11 10:42:51;;;;;;;7.10;4.03;;;18.90;1.00;;;;;;4941105;29;20220;-80
2023/05/11 10:45:40;;;;;;;8.50;4.17;;;18.70;1.00;;;;;;4941174;29;20251;-79
2023/05/11 10:48:30;;;;;;;8.40;4.30;;;18.80;1.00;;;;;;4939068;29;20260;-82
2023/05/11 10:51:23;;;;;;;7.40;3.73;;;18.50;1.00;;;;;;4940372;29;20225;-81
2023/05/11 10:54:10;;;;;;;10.40;4.27;;;18.90;1.00;;;;;;4939997;29;20170;-81
2023/05/11 10:56:52;;;;;;;8.67;4.50;;;19.20;1.00;;;;;;4944379;29;20180;-83
2023/05/11 10:59:48;;;;;;;7.23;4.00;;;19.20;1.00;;;;;;4944228;29;20234;-80
2023/05/11 11:02:16;;;;;;;7.03;4.00;;;19.10;1.00;;;;;;4940052;29;20197;-82
2023/05/11 11:04:50;;;;;;;12.60;4.40;;;18.90;1.00;;;;;;4939706;29;20624;-80
2023/05/11 11:07:18;;;;;;;6.97;4.07;;;19.00;1.00;;;;;;4939739;29;20344;-82
2023/05/11 11:09:55;;;;;;;7.17;3.80;;;19.20;1.00;;;;;;4938176;29;20189;-82
2023/05/11 11:12:25;;;;;;;10.60;4.10;;;19.30;1.00;;;;;;4939015;29;20180;-82
2023/05/11 11:14:56;;;;;;;15.90;4.53;;;19.10;1.00;;;;;;4937756;29;20640;-81
2023/05/11 11:17:30;;;;;;;7.13;4.53;;;19.10;1.00;;;;;;4939119;29;20184;-81
2023/05/11 11:20:03;;;;;;;9.57;4.57;;;18.90;1.00;;;;;;4938972;29;20176;-84
2023/05/11 11:22:35;;;;;;;7.80;4.67;;;18.80;1.00;;;;;;4938037;29;20582;-80
2023/05/11 11:25:06;;;;;;;10.03;5.10;;;18.60;1.00;;;;;;4938152;29;20272;-84
2023/05/11 11:27:44;;;;;;;9.77;4.03;;;18.60;1.00;;;;;;4939455;29;20181;-82
2023/05/11 11:30:29;;;;;;;8.33;4.30;;;18.60;1.00;;;;;;4939383;29;20209;-82
2023/05/11 11:33:05;;;;;;;8.10;4.33;;;18.80;1.00;;;;;;4937996;29;20658;-81
2023/05/11 11:35:40;;;;;;;8.37;3.67;;;18.90;1.00;;;;;;4939009;29;20163;-81
2023/05/11 11:38:16;;;;;;;7.00;3.70;;;18.80;1.00;;;;;;4938837;29;20176;-83
2023/05/11 11:40:48;;;;;;;7.50;3.37;;;18.90;1.00;;;;;;4945387;29;20203;-81
2023/05/11 11:43:17;;;;;;;5.90;3.43;;;18.60;1.00;;;;;;4947567;29;20175;-84
2023/05/11 11:46:02;;;;;;;6.80;3.40;;;18.30;1.00;;;;;;4942995;29;20179;-81
2023/05/11 11:48:39;;;;;;;7.50;3.30;;;18.40;1.00;;;;;;4940735;29;20209;-81
2023/05/11 11:51:10;;;;;;;6.07;3.30;;;18.70;1.00;;;;;;4939431;29;20714;-80
2023/05/11 11:53:39;;;;;;;8.20;3.23;;;18.90;1.00;;;;;;4939294;29;20253;-81
2023/05/11 11:56:27;;;;;;;9.80;4.80;;;18.80;1.00;;;;;;4941237;29;20171;-84
2023/05/11 11:58:59;;;;;;;8.93;4.90;;;18.90;1.00;;;;;;4942659;29;20177;-80
2023/05/11 12:01:27;;;;;;;11.70;4.43;;;18.90;1.00;;;;;;4938062;29;20230;-80
2023/05/11 12:04:22;;;;;;;8.13;4.40;;;18.90;1.00;;;;;;4940363;29;20198;-80
2023/05/11 12:06:56;;;;;;;9.37;4.87;;;18.70;1.00;;;;;;4938872;29;20185;-80
2023/05/11 12:09:22;;;;;;;9.97;4.37;;;18.70;1.00;;;;;;4939049;29;20164;-81
2023/05/11 12:11:48;;;;;;;8.23;4.37;;;18.60;1.00;;;;;;4939498;29;20176;-83
2023/05/11 12:14:14;;;;;;;8.13;4.30;;;18.70;1.00;;;;;;4938859;29;20158;-81
2023/05/11 12:17:03;;;;;;;6.33;3.97;;;18.80;1.00;;;;;;4939431;29;20164;-80
2023/05/11 12:19:29;;;;;;;7.13;3.87;;;18.90;1.00;;;;;;4938830;29;20184;-81
2023/05/11 12:21:56;;;;;;;10.27;4.80;;;18.90;1.00;;;;;;4938106;29;20205;-83
2023/05/11 12:24:23;;;;;;;9.20;4.03;;;18.90;1.00;;;;;;4937796;29;20164;-83
2023/05/11 12:26:49;;;;;;;6.53;3.37;;;19.10;1.00;;;;;;4938247;29;20173;-81
2023/05/11 12:29:15;;;;;;;8.10;3.83;;;19.30;1.00;;;;;;4938209;29;20718;-80
2023/05/11 12:31:42;;;;;;;8.37;3.43;;;19.70;1.00;;;;;;4939534;29;20204;-81
2023/05/11 12:34:15;;;;;;;10.60;3.83;;;20.00;1.00;;;;;;4938798;29;20185;-80
2023/05/11 12:36:41;;;;;;;8.70;3.40;;;20.30;99.90;;;;;;4939045;29;20184;-82
2023/05/11 12:39:07;;;;;;;7.60;3.47;;;20.40;99.90;;;;;;4938790;29;20172;-82
2023/05/11 12:41:33;;;;;;;5.87;3.23;;;20.30;99.90;;;;;;4938677;29;20729;-82
2023/05/11 12:43:59;;;;;;;7.73;4.27;;;20.20;22.80;;;;;;4937489;29;20179;-82
2023/05/11 12:46:24;;;;;;;8.50;4.90;;;19.70;1.00;;;;;;4938403;29;20179;-80
2023/05/11 12:48:51;;;;;;;8.40;4.53;;;19.30;1.00;;;;;;4938023;29;20174;-80
2023/05/11 12:52:00;;;;;;;12.27;4.87;;;19.00;1.00;;;;;;4938439;29;20194;-80
2023/05/11 12:54:30;;;;;;;12.37;5.03;;;18.70;1.00;;;;;;4939138;29;20288;-82
2023/05/11 12:56:57;;;;;;;9.87;5.43;;;18.50;1.00;;;;;;4938491;29;20169;-80